^^
Station Historical Data
Daily Summary for November 20, 2017 Units:  Metric    English   Both
« Previous Day
Next Day »
Daily Weekly Monthly Yearly Custom
  High: Low: Average:
Temperature: 35.3 °C 15.1 °C 24.4 °C
Dew Point: 8.2 °C -21.8 °C -2.4 °C
Humidity: 43% 2% 21%
Wind Speed: 38.5km/h 0km/h 11.1km/h
Wind Gust: 45.1km/h - -
Wind- - SW
Pressure: 1007 hPa 1002.3 hPa -
Precipitation: 0 mm    
Historical Graphs
 
 
Tabular Data for November 20, 2017
Time Temperature Dew Point Pressure Wind Wind Speed Wind Gust Humidity Rainfall Rate (Hourly) solar Conditions
02:02 20.9 °C -1 °C 1005.6 hPa SSW 7.9 km/h 9.7 km/h 23% 0 mm 0.0 W/m2
02:23 20.9 °C -0.4 °C 1005.6 hPa SSW 4.7 km/h 6.4 km/h 24% 0 mm 0.0 W/m2
02:33 20.7 °C -0.6 °C 1005.6 hPa SSW 9.7 km/h 9.7 km/h 24% 0 mm 0.0 W/m2
02:43 19.8 °C -0.3 °C 1005.6 hPa SSW 6.4 km/h 9.7 km/h 26% 0 mm 0.0 W/m2
02:58 19.1 °C -0.3 °C 1005.6 hPa SSW 7.9 km/h 9.7 km/h 27% 0 mm 0.0 W/m2
03:08 18.9 °C -0.5 °C 1005.3 hPa SSW 7.9 km/h 8 km/h 27% 0 mm 0.0 W/m2
03:13 18.8 °C -0.1 °C 1005.3 hPa SSW 6.4 km/h 8 km/h 28% 0 mm 0.0 W/m2
03:24 18.4 °C -0.4 °C 1005.3 hPa SSW 4.7 km/h 6.4 km/h 28% 0 mm 0.0 W/m2
03:34 18.3 °C -0.5 °C 1005.3 hPa SSW 6.4 km/h 8 km/h 28% 0 mm 0.0 W/m2
03:44 18.1 °C -0.7 °C 1005.3 hPa SSW 6.4 km/h 8 km/h 28% 0 mm 0.0 W/m2
03:59 17.9 °C -0.4 °C 1005 hPa SSW 6.4 km/h 6.4 km/h 29% 0 mm 0.0 W/m2
04:04 17.8 °C -0.5 °C 1005 hPa SSW 4.7 km/h 6.4 km/h 29% 0 mm 0.0 W/m2
04:09 17.7 °C -0.6 °C 1005 hPa SSW 3.2 km/h 4.8 km/h 29% 0 mm 0.0 W/m2
04:14 17.6 °C -0.7 °C 1005 hPa Calm     29% 0 mm 0.0 W/m2
04:20 17.4 °C -0.4 °C 1005 hPa Calm     30% 0 mm 0.0 W/m2
04:30 17.2 °C -0.5 °C 1005 hPa Calm     30% 0 mm 0.0 W/m2
04:35 17.1 °C -0.6 °C 1005 hPa Calm     30% 0 mm 0.0 W/m2
04:40 16.9 °C -0.8 °C 1005 hPa Calm     30% 0 mm 0.0 W/m2
04:51 16.7 °C -1 °C 1005 hPa Calm     30% 0 mm 0.0 W/m2
04:56 16.6 °C -1.1 °C 1005.3 hPa Calm     30% 0 mm 0.0 W/m2
05:01 16.5 °C -1.1 °C 1005.3 hPa Calm     30% 0 mm 0.0 W/m2
05:07 16.5 °C -1.1 °C 1005 hPa Calm     30% 0 mm 0.0 W/m2
05:12 16.3 °C -1.3 °C 1005 hPa Calm     30% 0 mm 0.0 W/m2
05:18 16.2 °C -1 °C 1005 hPa Calm     31% 0 mm 0.0 W/m2
05:28 15.7 °C -1.4 °C 1005 hPa Calm     31% 0 mm 0.0 W/m2
05:43 15.2 °C -1.4 °C 1005.3 hPa Calm     32% 0 mm 0.0 W/m2
05:48 15.1 °C -1.5 °C 1005.3 hPa Calm     32% 0 mm 5.0 W/m2
05:54 15.1 °C -1.1 °C 1005.3 hPa Calm     33% 0 mm 9.0 W/m2
05:57 15.2 °C -1 °C 1005.3 hPa Calm     33% 0 mm 14.0 W/m2
06:11 15.3 °C -1.3 °C 1005.6 hPa Calm     32% 0 mm 23.0 W/m2
06:22 15.5 °C -0.7 °C 1006 hPa Calm     33% 0 mm 39.0 W/m2
06:34 15.9 °C -0.8 °C 1006 hPa Calm     32% 0 mm 69.0 W/m2
06:49 16.9 °C 0.9 °C 1006.3 hPa Calm     34% 0 mm 123.0 W/m2
07:04 18 °C 1.9 °C 1006.3 hPa Calm     34% 0 mm 188.0 W/m2
09:42 26.2 °C -1.6 °C 1006.7 hPa Calm     16% 0 mm 698.0 W/m2
09:58 26.9 °C -1.9 °C 1006.7 hPa Calm     15% 0 mm 777.0 W/m2
10:13 27.3 °C -3.5 °C 1006.3 hPa Calm     13% 0 mm 765.0 W/m2
10:18 27.3 °C -3.5 °C 1006.3 hPa Calm     13% 0 mm 842.0 W/m2
10:33 28.1 °C -5.1 °C 1006 hPa Calm   6.4 km/h 11% 0 mm 867.0 W/m2
10:40 28.1 °C -5.1 °C 1006 hPa Calm   6.4 km/h 11% 0 mm 867.0 W/m2
10:49 28.6 °C -6 °C 1006 hPa ENE 1.4 km/h 8 km/h 10% 0 mm 882.0 W/m2
11:09 29.3 °C -5.5 °C 1006 hPa ENE 9.7 km/h 14.5 km/h 10% 0 mm 919.0 W/m2
11:15 29.3 °C -5.5 °C 1006 hPa ENE 9.7 km/h 14.5 km/h 10% 0 mm 919.0 W/m2
11:30 30 °C -9.6 °C 1005.6 hPa North 13 km/h 16.1 km/h 7% 0 mm 933.0 W/m2
12:17 30.7 °C -9.1 °C 1005 hPa NNW 13 km/h 24.1 km/h 7% 0 mm 972.0 W/m2
12:31 30.9 °C -8.9 °C 1005 hPa NW 14.3 km/h 25.7 km/h 7% 0 mm 969.0 W/m2
12:39 32 °C -10.1 °C 1004.6 hPa NNW 19.5 km/h 22.5 km/h 6% 0 mm 976.0 W/m2
13:00 32.1 °C -10 °C 1004.3 hPa Calm   17.7 km/h 6% 0 mm 967.0 W/m2
13:13 32.8 °C -11.8 °C 1003.9 hPa NNW 13 km/h 19.3 km/h 5% 0 mm 965.0 W/m2
13:20 32.9 °C -14.5 °C 1003.9 hPa WNW 17.7 km/h 19.3 km/h 4% 0 mm 956.0 W/m2
13:45 34.2 °C -21.8 °C 1003.3 hPa NW 19.5 km/h 24.1 km/h 2% 0 mm 937.0 W/m2
14:25 35 °C -21.3 °C 1002.6 hPa West 24.1 km/h 30.6 km/h 2% 0 mm 875.0 W/m2
14:40 35.3 °C -21.1 °C 1002.6 hPa WNW 32 km/h 40.2 km/h 2% 0 mm 849.0 W/m2
15:04 35.1 °C -5.9 °C 1002.6 hPa SSW 38.5 km/h 45.1 km/h 7% 0 mm 786.0 W/m2
15:10 34.1 °C -3.3 °C 1002.3 hPa SSW 28.8 km/h 35.4 km/h 9% 0 mm 761.0 W/m2
15:24 33.9 °C -2 °C 1002.6 hPa SSW 32 km/h 38.6 km/h 10% 0 mm 745.0 W/m2
15:36 34 °C -1.9 °C 1002.6 hPa WSW 25.9 km/h 35.4 km/h 10% 0 mm 737.0 W/m2
15:51 33.8 °C -0.8 °C 1002.6 hPa WSW 28.8 km/h 37 km/h 11% 0 mm 687.0 W/m2
16:05 33.2 °C 0 °C 1002.9 hPa SW 20.9 km/h 29 km/h 12% 0 mm 638.0 W/m2
16:15 34.6 °C -6.2 °C 1002.6 hPa WNW 35.2 km/h 38.6 km/h 7% 0 mm 415.0 W/m2
16:30 33.6 °C -5.2 °C 1002.6 hPa WNW 28.8 km/h 40.2 km/h 8% 0 mm 153.0 W/m2
16:45 32.9 °C -4.2 °C 1002.6 hPa West 27.4 km/h 41.8 km/h 9% 0 mm 137.0 W/m2
16:55 33.1 °C -5.6 °C 1002.6 hPa West 32 km/h 38.6 km/h 8% 0 mm 158.0 W/m2
17:35 31.9 °C -3.5 °C 1002.9 hPa West 24.1 km/h 37 km/h 10% 0 mm 118.0 W/m2
18:00 31.2 °C -4 °C 1003.6 hPa West 19.5 km/h 32.2 km/h 10% 0 mm 63.0 W/m2
18:30 30.6 °C -3.2 °C 1003.9 hPa West 27.4 km/h 41.8 km/h 11% 0 mm 25.0 W/m2
18:40 30.4 °C -3.4 °C 1003.9 hPa WSW 28.8 km/h 30.6 km/h 11% 0 mm 26.0 W/m2
19:00 30.4 °C -4.6 °C 1003.9 hPa WSW 32 km/h 38.6 km/h 10% 0 mm 30.0 W/m2
19:11 30.1 °C -4.9 °C 1004.3 hPa West 28.8 km/h 29 km/h 10% 0 mm 21.0 W/m2
19:45 27.4 °C 5 °C 1004.6 hPa WSW 19.5 km/h 25.7 km/h 24% 0 mm 0.0 W/m2
19:54 26.7 °C 6.1 °C 1005 hPa SW 22.7 km/h 25.7 km/h 27% 0 mm 0.0 W/m2
20:31 24 °C 7.2 °C 1006 hPa SW 14.3 km/h 19.3 km/h 34% 0 mm 0.0 W/m2
20:46 23.7 °C 7.7 °C 1006 hPa SSW 14.3 km/h 19.3 km/h 36% 0 mm 0.0 W/m2
21:01 23.3 °C 7.8 °C 1006.3 hPa SSW 17.7 km/h 19.3 km/h 37% 0 mm 0.0 W/m2
21:14 23 °C 7.5 °C 1006.3 hPa SSW 13 km/h 24.1 km/h 37% 0 mm 0.0 W/m2
21:30 22.5 °C 7.9 °C 1006.3 hPa SSW 14.3 km/h 17.7 km/h 39% 0 mm 0.0 W/m2
21:41 22.2 °C 8 °C 1006.3 hPa SW 14.3 km/h 19.3 km/h 40% 0 mm 0.0 W/m2
22:08 21.3 °C 8.2 °C 1007 hPa SW 11.1 km/h 17.7 km/h 43% 0 mm 0.0 W/m2
Canyon Roadhouse, Fishriver Canyon, Namibia
Compliments of Weather Underground - 2 mb